RIC weather

Richmond International Airport
Richmond, Virginia, United States

Public forecast

Using degrees Fahrenheit for public forecast. Weather courtesy of forecast.io.

METAR (pilot weather report)

Retrieved 2018/08/16 11:54 UTC (50 minutes ago):

KRIC 161154Z 00000KT 9SM BKN250 23/22 A3011 RMK AO2 SLP200 T02330217 10233 20206 53012

TAF (pilot weather forecast)

Retrieved 2018/08/16 12:22 UTC (22 minutes ago):

TAF KRIC 161120Z 1612/1712 24005KT P6SM SKC FM161600 20007KT P6SM SCT060 FM170000 18003KT P6SM SKC